ANA1125 RJNW-RJTT
Flight info
| Callsign | ANA1125 |
|---|---|
| Flight time | N/A |
| Altitude | 31000 |
| Route | HISUI Y31 GUSGI/N0468F300 Y10 GODIN |
| Aircraft | A320/M-SDE3FGHIRWY/LB1 |
Departure
| Time | 2026-05-05 17:26 |
|---|---|
| Airport | Noto Satoyama Airport (RJNW) |
Arrival
| Time | N/A |
|---|---|
| Airport | Tokyo Haneda International Airport (RJTT) |
| Time | Latitude | Longitude | Altitude | Speed | Heading |
|---|---|---|---|---|---|
| 2026-05-05 17:08 | 37.29473 | 136.95769 | 727 ft | 0 kts | 336° |
| 2026-05-05 17:19 | 37.29471 | 136.95770 | 726 ft | 3 kts | 336° |
| 2026-05-05 17:19 | 37.29446 | 136.95783 | 724 ft | 4 kts | 336° |
| 2026-05-05 17:19 | 37.29428 | 136.95793 | 725 ft | 3 kts | 351° |
| 2026-05-05 17:19 | 37.29406 | 136.95787 | 722 ft | 4 kts | 40° |
| 2026-05-05 17:20 | 37.29394 | 136.95777 | 723 ft | 0 kts | 18° |
| 2026-05-05 17:22 | 37.29373 | 136.95799 | 724 ft | 10 kts | 167° |
| 2026-05-05 17:23 | 37.29310 | 136.95829 | 722 ft | 9 kts | 156° |
| 2026-05-05 17:23 | 37.29260 | 136.95855 | 727 ft | 7 kts | 162° |
| 2026-05-05 17:23 | 37.29225 | 136.95854 | 726 ft | 5 kts | 199° |
| 2026-05-05 17:23 | 37.29173 | 136.95753 | 730 ft | 20 kts | 250° |
| 2026-05-05 17:24 | 37.29113 | 136.95585 | 726 ft | 22 kts | 245° |
| 2026-05-05 17:24 | 37.29071 | 136.95463 | 725 ft | 24 kts | 245° |
| 2026-05-05 17:24 | 37.29016 | 136.95274 | 720 ft | 19 kts | 263° |
| 2026-05-05 17:24 | 37.28986 | 136.95204 | 720 ft | 3 kts | 156° |
| 2026-05-05 17:25 | 37.28987 | 136.95221 | 719 ft | 4 kts | 64° |
| 2026-05-05 17:25 | 37.28995 | 136.95242 | 720 ft | 3 kts | 67° |
| 2026-05-05 17:25 | 37.29099 | 136.95544 | 727 ft | 79 kts | 66° |
| 2026-05-05 17:25 | 37.29430 | 136.96500 | 726 ft | 156 kts | 66° |
| 2026-05-05 17:26 | 37.29895 | 136.97829 | 1247 ft | 171 kts | 68° |
| 2026-05-05 17:26 | 37.30366 | 136.99249 | 2019 ft | 179 kts | 70° |
| 2026-05-05 17:26 | 37.30836 | 137.00730 | 2736 ft | 188 kts | 66° |
| 2026-05-05 17:26 | 37.31343 | 137.02343 | 3000 ft | 207 kts | 66° |
| 2026-05-05 17:27 | 37.31902 | 137.04122 | 3259 ft | 230 kts | 66° |
| 2026-05-05 17:27 | 37.32512 | 137.06075 | 3682 ft | 246 kts | 66° |
| 2026-05-05 17:27 | 37.33139 | 137.08092 | 4373 ft | 255 kts | 66° |
| 2026-05-05 17:27 | 37.33810 | 137.10240 | 4937 ft | 270 kts | 65° |
| 2026-05-05 17:28 | 37.34492 | 137.12423 | 5711 ft | 274 kts | 65° |
| 2026-05-05 17:28 | 37.35191 | 137.14671 | 6606 ft | 277 kts | 65° |
| 2026-05-05 17:28 | 37.35909 | 137.16982 | 7467 ft | 281 kts | 65° |
| 2026-05-05 17:28 | 37.36618 | 137.19260 | 8283 ft | 285 kts | 64° |
| 2026-05-05 17:29 | 37.37344 | 137.21595 | 9140 ft | 289 kts | 64° |
| 2026-05-05 17:29 | 37.38076 | 137.23958 | 9985 ft | 292 kts | 64° |
| 2026-05-05 17:29 | 37.38835 | 137.26394 | 10395 ft | 310 kts | 63° |
| 2026-05-05 17:29 | 37.39657 | 137.29013 | 10607 ft | 334 kts | 63° |
| 2026-05-05 17:30 | 37.40536 | 137.31821 | 10816 ft | 356 kts | 63° |
| 2026-05-05 17:30 | 37.41449 | 137.34766 | 11336 ft | 365 kts | 63° |
| 2026-05-05 17:30 | 37.42071 | 137.36791 | 11770 ft | 369 kts | 63° |
| 2026-05-05 17:30 | 37.42416 | 137.37919 | 12020 ft | 370 kts | 62° |
| 2026-05-05 17:31 | 37.43361 | 137.40967 | 12680 ft | 375 kts | 61° |
| 2026-05-05 17:31 | 37.44308 | 137.44042 | 13373 ft | 379 kts | 61° |
| 2026-05-05 17:31 | 37.45264 | 137.47152 | 14028 ft | 383 kts | 60° |
| 2026-05-05 17:31 | 37.46226 | 137.50293 | 14606 ft | 387 kts | 60° |
| 2026-05-05 17:32 | 37.47202 | 137.53481 | 15187 ft | 391 kts | 60° |
| 2026-05-05 17:32 | 37.48183 | 137.56685 | 15783 ft | 395 kts | 60° |
| 2026-05-05 17:32 | 37.49107 | 137.59698 | 16318 ft | 399 kts | 60° |